sensor_id;sensor_type;location;lat;lon;timestamp;P1;durP1;ratioP1;P2;durP2;ratioP2
36443;SDS011;24692;45.642;13.806;2023-04-30T00:02:06;7.00;;;5.30;;
36443;SDS011;24692;45.642;13.806;2023-04-30T00:04:32;6.63;;;5.23;;
36443;SDS011;24692;45.642;13.806;2023-04-30T00:06:58;8.03;;;5.60;;
36443;SDS011;24692;45.642;13.806;2023-04-30T00:09:23;8.77;;;5.73;;
36443;SDS011;24692;45.642;13.806;2023-04-30T00:11:49;10.73;;;5.40;;
36443;SDS011;24692;45.642;13.806;2023-04-30T00:14:15;7.80;;;5.50;;
36443;SDS011;24692;45.642;13.806;2023-04-30T00:16:41;6.93;;;5.17;;
36443;SDS011;24692;45.642;13.806;2023-04-30T00:19:06;7.20;;;5.97;;
36443;SDS011;24692;45.642;13.806;2023-04-30T00:21:32;7.63;;;5.33;;
36443;SDS011;24692;45.642;13.806;2023-04-30T00:23:58;6.60;;;5.40;;
36443;SDS011;24692;45.642;13.806;2023-04-30T00:26:26;8.33;;;5.67;;
36443;SDS011;24692;45.642;13.806;2023-04-30T00:28:52;9.67;;;6.03;;
36443;SDS011;24692;45.642;13.806;2023-04-30T00:31:18;7.50;;;5.70;;
36443;SDS011;24692;45.642;13.806;2023-04-30T00:33:44;7.97;;;4.97;;
36443;SDS011;24692;45.642;13.806;2023-04-30T00:36:09;9.37;;;5.60;;
36443;SDS011;24692;45.642;13.806;2023-04-30T00:38:35;7.37;;;6.17;;
36443;SDS011;24692;45.642;13.806;2023-04-30T00:41:00;9.00;;;5.97;;
36443;SDS011;24692;45.642;13.806;2023-04-30T00:43:26;8.60;;;6.33;;
36443;SDS011;24692;45.642;13.806;2023-04-30T00:45:52;10.67;;;6.73;;
36443;SDS011;24692;45.642;13.806;2023-04-30T00:48:18;9.57;;;7.10;;
36443;SDS011;24692;45.642;13.806;2023-04-30T00:50:43;9.40;;;6.27;;
36443;SDS011;24692;45.642;13.806;2023-04-30T00:53:09;8.87;;;6.57;;
36443;SDS011;24692;45.642;13.806;2023-04-30T00:55:36;8.47;;;7.33;;
36443;SDS011;24692;45.642;13.806;2023-04-30T00:58:02;6.70;;;5.80;;
36443;SDS011;24692;45.642;13.806;2023-04-30T01:00:29;11.20;;;6.53;;
36443;SDS011;24692;45.642;13.806;2023-04-30T01:02:55;9.80;;;6.73;;
36443;SDS011;24692;45.642;13.806;2023-04-30T01:05:21;8.47;;;6.57;;
36443;SDS011;24692;45.642;13.806;2023-04-30T01:07:47;11.20;;;6.70;;
36443;SDS011;24692;45.642;13.806;2023-04-30T01:10:13;10.33;;;6.37;;
36443;SDS011;24692;45.642;13.806;2023-04-30T01:15:45;10.77;;;6.30;;
36443;SDS011;24692;45.642;13.806;2023-04-30T01:18:28;9.60;;;6.30;;
36443;SDS011;24692;45.642;13.806;2023-04-30T01:21:00;8.90;;;5.90;;
36443;SDS011;24692;45.642;13.806;2023-04-30T01:28:53;8.50;;;6.30;;
36443;SDS011;24692;45.642;13.806;2023-04-30T01:31:23;9.27;;;6.03;;
36443;SDS011;24692;45.642;13.806;2023-04-30T01:33:52;8.40;;;6.13;;
36443;SDS011;24692;45.642;13.806;2023-04-30T01:42:04;7.90;;;5.80;;
36443;SDS011;24692;45.642;13.806;2023-04-30T01:52:45;9.17;;;5.83;;
36443;SDS011;24692;45.642;13.806;2023-04-30T01:58:08;7.33;;;5.33;;
36443;SDS011;24692;45.642;13.806;2023-04-30T02:00:36;7.27;;;5.63;;
36443;SDS011;24692;45.642;13.806;2023-04-30T02:03:02;7.57;;;5.60;;
36443;SDS011;24692;45.642;13.806;2023-04-30T02:05:28;8.17;;;5.47;;
36443;SDS011;24692;45.642;13.806;2023-04-30T02:07:53;8.47;;;5.60;;
36443;SDS011;24692;45.642;13.806;2023-04-30T02:10:21;8.43;;;5.40;;
36443;SDS011;24692;45.642;13.806;2023-04-30T02:12:47;5.70;;;4.90;;
36443;SDS011;24692;45.642;13.806;2023-04-30T02:15:13;9.33;;;5.80;;
36443;SDS011;24692;45.642;13.806;2023-04-30T02:17:39;8.93;;;5.60;;
36443;SDS011;24692;45.642;13.806;2023-04-30T02:20:05;9.00;;;5.60;;
36443;SDS011;24692;45.642;13.806;2023-04-30T02:22:32;7.30;;;5.33;;
36443;SDS011;24692;45.642;13.806;2023-04-30T02:24:58;9.00;;;5.67;;
36443;SDS011;24692;45.642;13.806;2023-04-30T02:27:24;7.60;;;5.80;;
36443;SDS011;24692;45.642;13.806;2023-04-30T02:29:51;8.53;;;5.40;;
36443;SDS011;24692;45.642;13.806;2023-04-30T02:32:17;7.00;;;5.37;;
36443;SDS011;24692;45.642;13.806;2023-04-30T02:34:43;10.10;;;6.20;;
36443;SDS011;24692;45.642;13.806;2023-04-30T02:37:09;6.97;;;5.60;;
36443;SDS011;24692;45.642;13.806;2023-04-30T02:39:35;8.83;;;5.90;;
36443;SDS011;24692;45.642;13.806;2023-04-30T02:42:00;9.07;;;5.33;;
36443;SDS011;24692;45.642;13.806;2023-04-30T02:44:27;7.73;;;5.33;;
36443;SDS011;24692;45.642;13.806;2023-04-30T02:46:53;10.23;;;5.87;;
36443;SDS011;24692;45.642;13.806;2023-04-30T02:49:18;10.60;;;5.80;;
36443;SDS011;24692;45.642;13.806;2023-04-30T02:51:44;10.73;;;5.73;;
36443;SDS011;24692;45.642;13.806;2023-04-30T02:54:10;6.13;;;5.10;;
36443;SDS011;24692;45.642;13.806;2023-04-30T02:56:36;6.30;;;5.03;;
36443;SDS011;24692;45.642;13.806;2023-04-30T02:59:03;9.67;;;4.97;;
36443;SDS011;24692;45.642;13.806;2023-04-30T03:01:29;6.47;;;5.57;;
36443;SDS011;24692;45.642;13.806;2023-04-30T03:04:02;7.33;;;5.40;;
36443;SDS011;24692;45.642;13.806;2023-04-30T03:06:29;6.63;;;5.60;;
36443;SDS011;24692;45.642;13.806;2023-04-30T03:08:55;6.20;;;5.60;;
36443;SDS011;24692;45.642;13.806;2023-04-30T03:11:21;7.53;;;5.00;;
36443;SDS011;24692;45.642;13.806;2023-04-30T03:13:46;7.37;;;5.00;;
36443;SDS011;24692;45.642;13.806;2023-04-30T03:16:15;6.60;;;4.80;;
36443;SDS011;24692;45.642;13.806;2023-04-30T03:18:42;5.43;;;4.77;;
36443;SDS011;24692;45.642;13.806;2023-04-30T03:21:12;8.60;;;4.93;;
36443;SDS011;24692;45.642;13.806;2023-04-30T03:23:38;8.30;;;5.37;;
36443;SDS011;24692;45.642;13.806;2023-04-30T03:26:04;7.43;;;5.00;;
36443;SDS011;24692;45.642;13.806;2023-04-30T03:28:29;8.23;;;4.93;;
36443;SDS011;24692;45.642;13.806;2023-04-30T03:30:55;6.47;;;4.90;;
36443;SDS011;24692;45.642;13.806;2023-04-30T03:33:21;5.20;;;4.60;;
36443;SDS011;24692;45.642;13.806;2023-04-30T03:35:47;7.87;;;5.37;;
36443;SDS011;24692;45.642;13.806;2023-04-30T03:38:14;8.53;;;6.43;;
36443;SDS011;24692;45.642;13.806;2023-04-30T03:40:40;11.23;;;6.23;;
36443;SDS011;24692;45.642;13.806;2023-04-30T03:43:05;9.13;;;6.20;;
36443;SDS011;24692;45.642;13.806;2023-04-30T03:45:31;8.53;;;6.07;;
36443;SDS011;24692;45.642;13.806;2023-04-30T03:47:57;8.60;;;5.87;;
36443;SDS011;24692;45.642;13.806;2023-04-30T03:50:22;7.10;;;5.50;;
36443;SDS011;24692;45.642;13.806;2023-04-30T03:52:48;8.10;;;5.40;;
36443;SDS011;24692;45.642;13.806;2023-04-30T03:55:13;8.17;;;5.40;;
36443;SDS011;24692;45.642;13.806;2023-04-30T03:57:40;6.77;;;5.37;;
36443;SDS011;24692;45.642;13.806;2023-04-30T04:00:06;6.90;;;5.10;;
36443;SDS011;24692;45.642;13.806;2023-04-30T04:02:34;6.60;;;5.17;;
36443;SDS011;24692;45.642;13.806;2023-04-30T04:05:01;6.47;;;5.00;;
36443;SDS011;24692;45.642;13.806;2023-04-30T04:07:27;6.20;;;5.20;;
36443;SDS011;24692;45.642;13.806;2023-04-30T04:09:52;6.50;;;4.80;;
36443;SDS011;24692;45.642;13.806;2023-04-30T04:12:18;5.27;;;4.80;;
36443;SDS011;24692;45.642;13.806;2023-04-30T04:14:43;5.57;;;4.63;;
36443;SDS011;24692;45.642;13.806;2023-04-30T04:17:09;5.70;;;4.70;;
36443;SDS011;24692;45.642;13.806;2023-04-30T04:19:35;5.30;;;4.30;;
36443;SDS011;24692;45.642;13.806;2023-04-30T04:22:01;5.60;;;4.60;;
36443;SDS011;24692;45.642;13.806;2023-04-30T04:24:26;5.63;;;4.30;;
36443;SDS011;24692;45.642;13.806;2023-04-30T04:26:52;8.17;;;4.37;;
36443;SDS011;24692;45.642;13.806;2023-04-30T04:29:18;8.93;;;5.27;;
36443;SDS011;24692;45.642;13.806;2023-04-30T04:31:44;7.00;;;4.87;;
36443;SDS011;24692;45.642;13.806;2023-04-30T04:34:12;7.00;;;5.77;;
36443;SDS011;24692;45.642;13.806;2023-04-30T04:36:38;7.73;;;5.70;;
36443;SDS011;24692;45.642;13.806;2023-04-30T04:39:04;5.53;;;4.77;;
36443;SDS011;24692;45.642;13.806;2023-04-30T04:41:30;7.30;;;4.23;;
36443;SDS011;24692;45.642;13.806;2023-04-30T04:43:57;6.27;;;4.70;;
36443;SDS011;24692;45.642;13.806;2023-04-30T04:46:24;10.57;;;5.63;;
36443;SDS011;24692;45.642;13.806;2023-04-30T04:48:53;6.70;;;5.20;;
36443;SDS011;24692;45.642;13.806;2023-04-30T04:51:19;6.60;;;4.93;;
36443;SDS011;24692;45.642;13.806;2023-04-30T04:53:44;7.57;;;6.40;;
36443;SDS011;24692;45.642;13.806;2023-04-30T04:56:10;5.93;;;5.07;;
36443;SDS011;24692;45.642;13.806;2023-04-30T04:58:36;9.03;;;6.30;;
36443;SDS011;24692;45.642;13.806;2023-04-30T05:01:02;7.23;;;5.17;;
36443;SDS011;24692;45.642;13.806;2023-04-30T05:03:30;6.47;;;5.37;;
36443;SDS011;24692;45.642;13.806;2023-04-30T05:05:56;6.43;;;5.10;;
36443;SDS011;24692;45.642;13.806;2023-04-30T05:08:22;6.00;;;4.60;;
36443;SDS011;24692;45.642;13.806;2023-04-30T05:10:47;6.97;;;4.60;;
36443;SDS011;24692;45.642;13.806;2023-04-30T05:13:13;4.80;;;3.77;;
36443;SDS011;24692;45.642;13.806;2023-04-30T05:15:39;4.47;;;3.27;;
36443;SDS011;24692;45.642;13.806;2023-04-30T05:18:04;4.33;;;3.57;;
36443;SDS011;24692;45.642;13.806;2023-04-30T05:20:30;5.37;;;3.70;;
36443;SDS011;24692;45.642;13.806;2023-04-30T05:22:56;4.00;;;3.37;;
36443;SDS011;24692;45.642;13.806;2023-04-30T05:25:21;3.77;;;3.27;;
36443;SDS011;24692;45.642;13.806;2023-04-30T05:27:48;3.37;;;3.07;;
36443;SDS011;24692;45.642;13.806;2023-04-30T05:30:13;3.67;;;3.27;;
36443;SDS011;24692;45.642;13.806;2023-04-30T05:32:39;4.13;;;3.00;;
36443;SDS011;24692;45.642;13.806;2023-04-30T05:35:06;3.07;;;2.83;;
36443;SDS011;24692;45.642;13.806;2023-04-30T05:37:32;3.83;;;2.67;;
36443;SDS011;24692;45.642;13.806;2023-04-30T05:39:58;3.73;;;2.80;;
36443;SDS011;24692;45.642;13.806;2023-04-30T05:42:23;3.30;;;3.00;;
36443;SDS011;24692;45.642;13.806;2023-04-30T05:44:49;2.43;;;2.23;;
36443;SDS011;24692;45.642;13.806;2023-04-30T05:47:15;4.60;;;2.57;;
36443;SDS011;24692;45.642;13.806;2023-04-30T05:49:41;3.50;;;2.80;;
36443;SDS011;24692;45.642;13.806;2023-04-30T05:52:06;3.03;;;2.70;;
36443;SDS011;24692;45.642;13.806;2023-04-30T05:54:32;3.53;;;2.77;;
36443;SDS011;24692;45.642;13.806;2023-04-30T05:56:57;2.93;;;2.37;;
36443;SDS011;24692;45.642;13.806;2023-04-30T05:59:23;3.47;;;2.70;;
36443;SDS011;24692;45.642;13.806;2023-04-30T06:01:50;3.03;;;2.43;;
36443;SDS011;24692;45.642;13.806;2023-04-30T06:04:16;2.60;;;2.40;;
36443;SDS011;24692;45.642;13.806;2023-04-30T06:06:41;2.00;;;1.90;;
36443;SDS011;24692;45.642;13.806;2023-04-30T06:09:07;3.33;;;2.20;;
36443;SDS011;24692;45.642;13.806;2023-04-30T06:11:33;2.30;;;2.00;;
36443;SDS011;24692;45.642;13.806;2023-04-30T06:13:59;3.20;;;2.20;;
36443;SDS011;24692;45.642;13.806;2023-04-30T06:16:25;3.70;;;2.10;;
36443;SDS011;24692;45.642;13.806;2023-04-30T06:18:50;2.63;;;1.90;;
36443;SDS011;24692;45.642;13.806;2023-04-30T06:21:16;2.07;;;1.83;;
36443;SDS011;24692;45.642;13.806;2023-04-30T06:23:42;2.10;;;1.90;;
36443;SDS011;24692;45.642;13.806;2023-04-30T06:26:07;2.37;;;2.00;;
36443;SDS011;24692;45.642;13.806;2023-04-30T06:28:33;1.73;;;1.63;;
36443;SDS011;24692;45.642;13.806;2023-04-30T06:30:59;1.93;;;1.83;;
36443;SDS011;24692;45.642;13.806;2023-04-30T06:33:25;2.20;;;1.90;;
36443;SDS011;24692;45.642;13.806;2023-04-30T06:35:50;2.57;;;1.77;;
36443;SDS011;24692;45.642;13.806;2023-04-30T06:38:19;1.90;;;1.70;;
36443;SDS011;24692;45.642;13.806;2023-04-30T06:40:45;1.73;;;1.50;;
36443;SDS011;24692;45.642;13.806;2023-04-30T06:43:11;2.33;;;1.57;;
36443;SDS011;24692;45.642;13.806;2023-04-30T06:45:37;2.60;;;2.03;;
36443;SDS011;24692;45.642;13.806;2023-04-30T06:48:03;1.93;;;1.80;;
36443;SDS011;24692;45.642;13.806;2023-04-30T06:50:29;2.40;;;1.60;;
36443;SDS011;24692;45.642;13.806;2023-04-30T06:52:55;2.00;;;1.63;;
36443;SDS011;24692;45.642;13.806;2023-04-30T06:55:20;2.03;;;1.60;;
36443;SDS011;24692;45.642;13.806;2023-04-30T06:57:46;1.55;;;1.45;;
36443;SDS011;24692;45.642;13.806;2023-04-30T07:00:12;2.17;;;1.80;;
36443;SDS011;24692;45.642;13.806;2023-04-30T07:02:39;2.10;;;1.70;;
36443;SDS011;24692;45.642;13.806;2023-04-30T07:05:05;1.80;;;1.70;;
36443;SDS011;24692;45.642;13.806;2023-04-30T07:07:31;3.80;;;1.93;;
36443;SDS011;24692;45.642;13.806;2023-04-30T07:09:57;1.88;;;1.70;;
36443;SDS011;24692;45.642;13.806;2023-04-30T07:12:23;1.83;;;1.73;;
36443;SDS011;24692;45.642;13.806;2023-04-30T07:14:48;2.20;;;2.00;;
36443;SDS011;24692;45.642;13.806;2023-04-30T07:17:14;2.35;;;1.90;;
36443;SDS011;24692;45.642;13.806;2023-04-30T07:19:40;3.55;;;1.80;;
36443;SDS011;24692;45.642;13.806;2023-04-30T07:22:06;2.53;;;1.80;;
36443;SDS011;24692;45.642;13.806;2023-04-30T07:24:31;1.70;;;1.60;;
36443;SDS011;24692;45.642;13.806;2023-04-30T07:26:57;1.77;;;1.58;;
36443;SDS011;24692;45.642;13.806;2023-04-30T07:29:26;2.03;;;1.85;;
36443;SDS011;24692;45.642;13.806;2023-04-30T07:31:53;2.75;;;1.80;;
36443;SDS011;24692;45.642;13.806;2023-04-30T07:34:19;4.53;;;2.03;;
36443;SDS011;24692;45.642;13.806;2023-04-30T07:36:45;2.10;;;1.60;;
36443;SDS011;24692;45.642;13.806;2023-04-30T07:39:12;2.83;;;1.80;;
36443;SDS011;24692;45.642;13.806;2023-04-30T07:41:37;1.77;;;1.67;;
36443;SDS011;24692;45.642;13.806;2023-04-30T07:44:03;2.50;;;1.60;;
36443;SDS011;24692;45.642;13.806;2023-04-30T07:46:29;1.83;;;1.73;;
36443;SDS011;24692;45.642;13.806;2023-04-30T07:48:55;2.97;;;1.60;;
36443;SDS011;24692;45.642;13.806;2023-04-30T07:51:20;1.95;;;1.85;;
36443;SDS011;24692;45.642;13.806;2023-04-30T07:53:46;2.47;;;2.00;;
36443;SDS011;24692;45.642;13.806;2023-04-30T07:56:12;2.40;;;2.03;;
36443;SDS011;24692;45.642;13.806;2023-04-30T07:58:38;4.23;;;1.80;;
36443;SDS011;24692;45.642;13.806;2023-04-30T08:01:03;2.30;;;1.87;;
36443;SDS011;24692;45.642;13.806;2023-04-30T08:03:29;1.60;;;1.50;;
36443;SDS011;24692;45.642;13.806;2023-04-30T08:05:55;1.98;;;1.70;;
36443;SDS011;24692;45.642;13.806;2023-04-30T08:08:20;2.77;;;1.70;;
36443;SDS011;24692;45.642;13.806;2023-04-30T08:10:46;1.67;;;1.57;;
36443;SDS011;24692;45.642;13.806;2023-04-30T08:13:11;2.35;;;1.67;;
36443;SDS011;24692;45.642;13.806;2023-04-30T08:15:37;1.88;;;1.60;;
36443;SDS011;24692;45.642;13.806;2023-04-30T08:18:04;3.40;;;1.77;;
36443;SDS011;24692;45.642;13.806;2023-04-30T08:20:30;1.73;;;1.63;;
36443;SDS011;24692;45.642;13.806;2023-04-30T08:22:56;2.38;;;1.65;;
36443;SDS011;24692;45.642;13.806;2023-04-30T08:25:22;1.50;;;1.40;;
36443;SDS011;24692;45.642;13.806;2023-04-30T08:27:48;1.20;;;1.10;;
36443;SDS011;24692;45.642;13.806;2023-04-30T08:30:14;1.73;;;1.33;;
36443;SDS011;24692;45.642;13.806;2023-04-30T08:32:39;1.65;;;1.55;;
36443;SDS011;24692;45.642;13.806;2023-04-30T08:35:05;2.45;;;1.63;;
36443;SDS011;24692;45.642;13.806;2023-04-30T08:37:32;1.88;;;1.70;;
36443;SDS011;24692;45.642;13.806;2023-04-30T08:39:58;1.45;;;1.35;;
36443;SDS011;24692;45.642;13.806;2023-04-30T08:42:24;3.13;;;1.55;;
36443;SDS011;24692;45.642;13.806;2023-04-30T08:44:56;2.53;;;1.70;;
36443;SDS011;24692;45.642;13.806;2023-04-30T08:47:25;2.00;;;1.70;;
36443;SDS011;24692;45.642;13.806;2023-04-30T08:49:51;2.97;;;1.20;;
36443;SDS011;24692;45.642;13.806;2023-04-30T08:52:17;1.30;;;1.05;;
36443;SDS011;24692;45.642;13.806;2023-04-30T08:54:43;1.55;;;1.45;;
36443;SDS011;24692;45.642;13.806;2023-04-30T08:57:11;1.55;;;1.35;;
36443;SDS011;24692;45.642;13.806;2023-04-30T08:59:37;2.65;;;1.30;;
36443;SDS011;24692;45.642;13.806;2023-04-30T09:02:03;1.83;;;1.48;;
36443;SDS011;24692;45.642;13.806;2023-04-30T09:04:29;1.40;;;1.30;;
36443;SDS011;24692;45.642;13.806;2023-04-30T09:06:55;1.70;;;1.60;;
36443;SDS011;24692;45.642;13.806;2023-04-30T09:09:27;3.30;;;1.40;;
36443;SDS011;24692;45.642;13.806;2023-04-30T09:12:10;1.40;;;1.30;;
36443;SDS011;24692;45.642;13.806;2023-04-30T09:14:39;1.60;;;1.40;;
36443;SDS011;24692;45.642;13.806;2023-04-30T09:17:05;1.40;;;1.30;;
36443;SDS011;24692;45.642;13.806;2023-04-30T09:19:33;1.85;;;1.50;;
36443;SDS011;24692;45.642;13.806;2023-04-30T09:21:58;2.08;;;1.40;;
36443;SDS011;24692;45.642;13.806;2023-04-30T09:24:45;1.30;;;1.20;;
36443;SDS011;24692;45.642;13.806;2023-04-30T09:27:16;1.30;;;1.20;;
36443;SDS011;24692;45.642;13.806;2023-04-30T09:29:43;2.45;;;1.30;;
36443;SDS011;24692;45.642;13.806;2023-04-30T09:32:10;1.45;;;1.30;;
36443;SDS011;24692;45.642;13.806;2023-04-30T09:34:36;1.30;;;1.20;;
36443;SDS011;24692;45.642;13.806;2023-04-30T09:37:02;1.42;;;1.15;;
36443;SDS011;24692;45.642;13.806;2023-04-30T09:39:28;1.20;;;1.10;;
36443;SDS011;24692;45.642;13.806;2023-04-30T09:42:15;1.25;;;1.13;;
36443;SDS011;24692;45.642;13.806;2023-04-30T09:44:41;1.40;;;1.30;;
36443;SDS011;24692;45.642;13.806;2023-04-30T09:47:13;2.05;;;1.40;;
36443;SDS011;24692;45.642;13.806;2023-04-30T09:49:41;1.98;;;1.30;;
36443;SDS011;24692;45.642;13.806;2023-04-30T09:52:08;3.28;;;1.23;;
36443;SDS011;24692;45.642;13.806;2023-04-30T09:54:35;1.10;;;1.10;;
36443;SDS011;24692;45.642;13.806;2023-04-30T09:57:01;1.20;;;1.10;;
36443;SDS011;24692;45.642;13.806;2023-04-30T09:59:31;1.65;;;1.25;;
36443;SDS011;24692;45.642;13.806;2023-04-30T10:02:02;1.65;;;1.55;;
36443;SDS011;24692;45.642;13.806;2023-04-30T10:04:33;1.70;;;1.30;;
36443;SDS011;24692;45.642;13.806;2023-04-30T10:07:25;1.40;;;1.30;;
36443;SDS011;24692;45.642;13.806;2023-04-30T10:09:56;1.58;;;1.30;;
36443;SDS011;24692;45.642;13.806;2023-04-30T10:12:24;3.10;;;1.27;;
36443;SDS011;24692;45.642;13.806;2023-04-30T10:14:57;1.33;;;1.23;;
36443;SDS011;24692;45.642;13.806;2023-04-30T10:17:30;1.67;;;1.58;;
36443;SDS011;24692;45.642;13.806;2023-04-30T10:20:00;1.30;;;1.20;;
36443;SDS011;24692;45.642;13.806;2023-04-30T10:22:32;1.15;;;1.15;;
36443;SDS011;24692;45.642;13.806;2023-04-30T10:24:59;3.17;;;1.13;;
36443;SDS011;24692;45.642;13.806;2023-04-30T10:27:26;1.05;;;1.00;;
36443;SDS011;24692;45.642;13.806;2023-04-30T10:29:53;1.48;;;1.38;;
36443;SDS011;24692;45.642;13.806;2023-04-30T10:32:19;2.08;;;1.30;;
36443;SDS011;24692;45.642;13.806;2023-04-30T10:34:52;1.35;;;1.27;;
36443;SDS011;24692;45.642;13.806;2023-04-30T10:37:33;1.40;;;1.30;;
36443;SDS011;24692;45.642;13.806;2023-04-30T10:40:04;1.40;;;1.30;;
36443;SDS011;24692;45.642;13.806;2023-04-30T10:42:33;2.03;;;1.17;;
36443;SDS011;24692;45.642;13.806;2023-04-30T10:45:01;1.30;;;1.20;;
36443;SDS011;24692;45.642;13.806;2023-04-30T10:47:27;1.50;;;1.10;;
36443;SDS011;24692;45.642;13.806;2023-04-30T10:50:01;1.00;;;1.00;;
36443;SDS011;24692;45.642;13.806;2023-04-30T10:52:33;2.42;;;1.10;;
36443;SDS011;24692;45.642;13.806;2023-04-30T10:55:04;1.95;;;1.13;;
36443;SDS011;24692;45.642;13.806;2023-04-30T10:57:39;1.00;;;1.00;;
36443;SDS011;24692;45.642;13.806;2023-04-30T11:02:43;3.70;;;1.50;;
36443;SDS011;24692;45.642;13.806;2023-04-30T11:05:11;3.03;;;1.45;;
36443;SDS011;24692;45.642;13.806;2023-04-30T11:07:45;1.27;;;1.17;;
36443;SDS011;24692;45.642;13.806;2023-04-30T11:10:13;1.10;;;0.93;;
36443;SDS011;24692;45.642;13.806;2023-04-30T11:12:39;0.90;;;0.90;;
36443;SDS011;24692;45.642;13.806;2023-04-30T11:15:11;1.20;;;1.02;;
36443;SDS011;24692;45.642;13.806;2023-04-30T11:17:38;1.02;;;1.02;;
36443;SDS011;24692;45.642;13.806;2023-04-30T11:20:04;1.35;;;1.10;;
36443;SDS011;24692;45.642;13.806;2023-04-30T11:22:30;1.30;;;1.27;;
36443;SDS011;24692;45.642;13.806;2023-04-30T11:25:03;1.10;;;0.98;;
36443;SDS011;24692;45.642;13.806;2023-04-30T11:27:34;1.52;;;1.10;;
36443;SDS011;24692;45.642;13.806;2023-04-30T11:30:01;2.45;;;1.10;;
36443;SDS011;24692;45.642;13.806;2023-04-30T11:32:33;2.38;;;1.13;;
36443;SDS011;24692;45.642;13.806;2023-04-30T11:35:02;1.02;;;1.02;;
36443;SDS011;24692;45.642;13.806;2023-04-30T11:37:30;0.93;;;0.93;;
36443;SDS011;24692;45.642;13.806;2023-04-30T11:39:59;1.65;;;1.05;;
36443;SDS011;24692;45.642;13.806;2023-04-30T11:42:29;0.90;;;0.90;;
36443;SDS011;24692;45.642;13.806;2023-04-30T11:45:16;1.15;;;1.15;;
36443;SDS011;24692;45.642;13.806;2023-04-30T11:47:50;1.00;;;1.00;;
36443;SDS011;24692;45.642;13.806;2023-04-30T11:50:19;1.35;;;1.20;;
36443;SDS011;24692;45.642;13.806;2023-04-30T11:52:51;1.02;;;0.90;;
36443;SDS011;24692;45.642;13.806;2023-04-30T11:55:19;1.17;;;1.08;;
36443;SDS011;24692;45.642;13.806;2023-04-30T11:57:46;1.08;;;1.05;;
36443;SDS011;24692;45.642;13.806;2023-04-30T12:00:18;1.00;;;1.00;;
36443;SDS011;24692;45.642;13.806;2023-04-30T12:02:45;2.35;;;1.10;;
36443;SDS011;24692;45.642;13.806;2023-04-30T12:07:46;1.60;;;1.20;;
36443;SDS011;24692;45.642;13.806;2023-04-30T12:10:17;1.10;;;1.10;;
36443;SDS011;24692;45.642;13.806;2023-04-30T12:12:43;1.10;;;1.05;;
36443;SDS011;24692;45.642;13.806;2023-04-30T12:15:18;1.30;;;1.20;;
36443;SDS011;24692;45.642;13.806;2023-04-30T12:17:56;1.58;;;1.00;;
36443;SDS011;24692;45.642;13.806;2023-04-30T12:20:23;2.03;;;1.10;;
36443;SDS011;24692;45.642;13.806;2023-04-30T12:22:50;1.30;;;1.15;;
36443;SDS011;24692;45.642;13.806;2023-04-30T12:25:17;1.20;;;1.13;;
36443;SDS011;24692;45.642;13.806;2023-04-30T12:27:45;1.10;;;1.00;;
36443;SDS011;24692;45.642;13.806;2023-04-30T12:30:23;1.73;;;1.63;;
36443;SDS011;24692;45.642;13.806;2023-04-30T12:32:51;1.75;;;1.20;;
36443;SDS011;24692;45.642;13.806;2023-04-30T12:35:21;0.93;;;0.93;;
36443;SDS011;24692;45.642;13.806;2023-04-30T12:37:49;1.45;;;1.13;;
36443;SDS011;24692;45.642;13.806;2023-04-30T12:40:16;1.27;;;1.13;;
36443;SDS011;24692;45.642;13.806;2023-04-30T12:42:46;2.45;;;1.10;;
36443;SDS011;24692;45.642;13.806;2023-04-30T12:45:13;1.20;;;1.10;;
36443;SDS011;24692;45.642;13.806;2023-04-30T12:48:07;1.27;;;1.17;;
36443;SDS011;24692;45.642;13.806;2023-04-30T12:50:33;2.10;;;1.10;;
36443;SDS011;24692;45.642;13.806;2023-04-30T12:53:01;0.90;;;0.90;;
36443;SDS011;24692;45.642;13.806;2023-04-30T12:55:26;1.33;;;1.20;;
36443;SDS011;24692;45.642;13.806;2023-04-30T12:58:06;1.00;;;1.00;;
36443;SDS011;24692;45.642;13.806;2023-04-30T13:03:27;1.33;;;1.15;;
36443;SDS011;24692;45.642;13.806;2023-04-30T13:05:53;1.23;;;1.13;;
36443;SDS011;24692;45.642;13.806;2023-04-30T13:08:18;1.33;;;1.23;;
36443;SDS011;24692;45.642;13.806;2023-04-30T13:10:46;1.23;;;1.23;;
36443;SDS011;24692;45.642;13.806;2023-04-30T13:13:13;1.10;;;1.10;;
36443;SDS011;24692;45.642;13.806;2023-04-30T13:15:39;2.17;;;1.30;;
36443;SDS011;24692;45.642;13.806;2023-04-30T13:18:06;1.30;;;1.20;;
36443;SDS011;24692;45.642;13.806;2023-04-30T13:20:36;1.40;;;1.20;;
36443;SDS011;24692;45.642;13.806;2023-04-30T13:23:03;3.15;;;1.27;;
36443;SDS011;24692;45.642;13.806;2023-04-30T13:25:31;2.65;;;1.27;;
36443;SDS011;24692;45.642;13.806;2023-04-30T13:27:57;1.40;;;1.30;;
36443;SDS011;24692;45.642;13.806;2023-04-30T13:30:23;2.25;;;1.30;;
36443;SDS011;24692;45.642;13.806;2023-04-30T13:32:49;1.50;;;1.10;;
36443;SDS011;24692;45.642;13.806;2023-04-30T13:35:15;1.42;;;1.20;;
36443;SDS011;24692;45.642;13.806;2023-04-30T13:37:41;1.23;;;1.13;;
36443;SDS011;24692;45.642;13.806;2023-04-30T13:40:07;1.25;;;1.20;;
36443;SDS011;24692;45.642;13.806;2023-04-30T13:42:35;1.42;;;1.33;;
36443;SDS011;24692;45.642;13.806;2023-04-30T13:45:02;1.90;;;0.93;;
36443;SDS011;24692;45.642;13.806;2023-04-30T13:47:28;1.67;;;1.20;;
36443;SDS011;24692;45.642;13.806;2023-04-30T13:49:54;2.05;;;1.15;;
36443;SDS011;24692;45.642;13.806;2023-04-30T13:52:20;1.10;;;1.10;;
36443;SDS011;24692;45.642;13.806;2023-04-30T13:54:45;1.80;;;1.10;;
36443;SDS011;24692;45.642;13.806;2023-04-30T13:57:11;1.30;;;1.20;;
36443;SDS011;24692;45.642;13.806;2023-04-30T13:59:37;1.40;;;1.30;;
36443;SDS011;24692;45.642;13.806;2023-04-30T14:02:03;1.10;;;1.10;;
36443;SDS011;24692;45.642;13.806;2023-04-30T14:04:28;1.40;;;1.30;;
36443;SDS011;24692;45.642;13.806;2023-04-30T14:06:55;1.73;;;1.30;;
36443;SDS011;24692;45.642;13.806;2023-04-30T14:09:21;2.20;;;1.33;;
36443;SDS011;24692;45.642;13.806;2023-04-30T14:11:47;1.75;;;1.17;;
36443;SDS011;24692;45.642;13.806;2023-04-30T14:14:13;1.30;;;1.20;;
36443;SDS011;24692;45.642;13.806;2023-04-30T14:16:38;2.05;;;1.20;;
36443;SDS011;24692;45.642;13.806;2023-04-30T14:19:04;1.40;;;1.30;;
36443;SDS011;24692;45.642;13.806;2023-04-30T14:21:30;1.30;;;1.20;;
36443;SDS011;24692;45.642;13.806;2023-04-30T14:23:57;1.73;;;1.48;;
36443;SDS011;24692;45.642;13.806;2023-04-30T14:26:22;2.30;;;1.40;;
36443;SDS011;24692;45.642;13.806;2023-04-30T14:28:48;1.52;;;1.38;;
36443;SDS011;24692;45.642;13.806;2023-04-30T14:31:14;1.60;;;1.30;;
36443;SDS011;24692;45.642;13.806;2023-04-30T14:33:39;2.17;;;1.30;;
36443;SDS011;24692;45.642;13.806;2023-04-30T14:36:05;1.55;;;1.40;;
36443;SDS011;24692;45.642;13.806;2023-04-30T14:38:32;1.77;;;1.30;;
36443;SDS011;24692;45.642;13.806;2023-04-30T14:40:57;1.30;;;1.20;;
36443;SDS011;24692;45.642;13.806;2023-04-30T14:43:23;2.15;;;1.10;;
36443;SDS011;24692;45.642;13.806;2023-04-30T14:45:49;1.67;;;1.40;;
36443;SDS011;24692;45.642;13.806;2023-04-30T14:48:15;1.38;;;1.25;;
36443;SDS011;24692;45.642;13.806;2023-04-30T14:50:44;1.35;;;1.17;;
36443;SDS011;24692;45.642;13.806;2023-04-30T14:53:10;1.55;;;1.20;;
36443;SDS011;24692;45.642;13.806;2023-04-30T14:55:39;1.55;;;1.13;;
36443;SDS011;24692;45.642;13.806;2023-04-30T14:58:06;1.38;;;1.10;;
36443;SDS011;24692;45.642;13.806;2023-04-30T15:00:32;2.45;;;1.35;;
36443;SDS011;24692;45.642;13.806;2023-04-30T15:02:57;1.50;;;1.40;;
36443;SDS011;24692;45.642;13.806;2023-04-30T15:05:24;1.50;;;1.40;;
36443;SDS011;24692;45.642;13.806;2023-04-30T15:07:50;2.60;;;1.40;;